createdAt,value
2019-01-17T00:02:31.568Z,4.67
2019-01-17T00:05:34.619Z,5.87
2019-01-17T00:08:15.932Z,4.30
2019-01-17T00:11:02.609Z,3.90
2019-01-17T00:13:59.741Z,5.30
2019-01-17T00:16:43.680Z,13.27
2019-01-17T00:19:44.149Z,6.63
2019-01-17T00:22:40.002Z,5.03
2019-01-17T00:25:26.701Z,3.63
2019-01-17T00:28:13.544Z,3.83
2019-01-17T00:30:50.659Z,8.20
2019-01-17T00:33:53.790Z,6.73
2019-01-17T00:36:53.755Z,6.47
2019-01-17T00:39:39.021Z,8.77
2019-01-17T00:42:21.715Z,3.73
2019-01-17T00:45:14.170Z,6.50
2019-01-17T00:48:03.780Z,4.27
2019-01-17T00:50:50.464Z,4.43
2019-01-17T00:53:30.613Z,4.90
2019-01-17T00:56:07.768Z,5.27
2019-01-17T00:59:08.889Z,5.00
2019-01-17T01:02:01.888Z,4.67
2019-01-17T01:04:46.268Z,8.60
2019-01-17T01:07:40.601Z,9.27
2019-01-17T01:10:32.680Z,6.83
2019-01-17T01:13:19.153Z,4.60
2019-01-17T01:16:10.992Z,5.53
2019-01-17T01:18:52.446Z,5.77
2019-01-17T01:21:56.665Z,6.30
2019-01-17T01:24:46.224Z,5.17
2019-01-17T01:27:32.304Z,6.90
2019-01-17T01:30:26.136Z,4.90
2019-01-17T01:33:07.560Z,5.13
2019-01-17T01:35:57.665Z,4.63
2019-01-17T01:38:44.283Z,6.00
2019-01-17T01:41:32.260Z,4.70
2019-01-17T01:44:18.713Z,7.60
2019-01-17T01:47:05.899Z,4.90
2019-01-17T01:50:03.264Z,9.97
2019-01-17T01:53:02.545Z,5.80
2019-01-17T01:55:31.410Z,4.83
2019-01-17T01:58:00.100Z,8.57
2019-01-17T02:00:28.946Z,4.67
2019-01-17T02:02:58.017Z,7.87
2019-01-17T02:05:27.359Z,8.30
2019-01-17T02:07:56.380Z,4.60
2019-01-17T02:10:25.501Z,6.70
2019-01-17T02:12:54.448Z,5.27
2019-01-17T02:15:23.435Z,4.27
2019-01-17T02:17:53.688Z,7.23
2019-01-17T02:20:22.407Z,6.10
2019-01-17T02:22:51.456Z,4.00
2019-01-17T02:25:20.474Z,4.40
2019-01-17T02:27:49.173Z,4.37
2019-01-17T02:30:17.989Z,4.07
2019-01-17T02:32:46.726Z,5.60
2019-01-17T02:35:15.539Z,4.20
2019-01-17T02:37:44.478Z,4.37
2019-01-17T02:40:13.566Z,4.57
2019-01-17T02:42:42.300Z,3.43
2019-01-17T02:45:13.294Z,4.23
2019-01-17T02:47:42.393Z,4.80
2019-01-17T02:50:11.450Z,4.70
2019-01-17T02:52:40.561Z,4.90
2019-01-17T02:55:10.306Z,5.07
2019-01-17T02:57:58.506Z,5.40
2019-01-17T03:00:27.456Z,5.00
2019-01-17T03:02:56.185Z,4.90
2019-01-17T03:05:25.200Z,4.97
2019-01-17T03:07:54.296Z,3.97
2019-01-17T03:10:23.373Z,4.80
2019-01-17T03:12:52.377Z,4.83
2019-01-17T03:15:21.094Z,4.73
2019-01-17T03:17:50.126Z,4.63
2019-01-17T03:20:18.989Z,4.57
2019-01-17T03:22:47.718Z,4.37
2019-01-17T03:25:17.221Z,4.50
2019-01-17T03:27:45.997Z,4.23
2019-01-17T03:30:17.137Z,4.87
2019-01-17T03:32:45.986Z,4.63
2019-01-17T03:35:14.932Z,4.50
2019-01-17T03:37:43.983Z,4.47
2019-01-17T03:40:15.963Z,4.20
2019-01-17T03:42:44.744Z,5.03
2019-01-17T03:45:14.027Z,4.10
2019-01-17T03:47:42.917Z,4.23
2019-01-17T03:50:13.957Z,4.57
2019-01-17T03:52:43.416Z,4.47
2019-01-17T03:55:14.605Z,5.27
2019-01-17T03:57:43.424Z,5.40
2019-01-17T04:00:17.693Z,5.17
2019-01-17T04:02:46.886Z,8.10
2019-01-17T04:05:15.863Z,6.60
2019-01-17T04:07:44.822Z,7.13
2019-01-17T04:10:14.366Z,7.37
2019-01-17T04:12:43.069Z,7.03
2019-01-17T04:15:12.672Z,6.50
2019-01-17T04:17:41.737Z,5.83
2019-01-17T04:20:14.033Z,8.43
2019-01-17T04:22:42.940Z,7.83
2019-01-17T04:25:11.807Z,9.47
2019-01-17T04:27:40.651Z,9.33
2019-01-17T04:30:15.655Z,10.37
2019-01-17T04:32:44.793Z,13.73
2019-01-17T04:35:13.573Z,9.83
2019-01-17T04:37:42.673Z,13.90
2019-01-17T04:40:11.909Z,14.80
2019-01-17T04:42:40.865Z,11.67
2019-01-17T04:45:12.446Z,12.27
2019-01-17T04:47:41.522Z,11.60
2019-01-17T04:50:12.075Z,9.67
2019-01-17T04:52:41.085Z,13.57
2019-01-17T04:55:10.658Z,13.53
2019-01-17T04:57:39.708Z,9.97
2019-01-17T05:00:12.557Z,12.43
2019-01-17T05:02:41.340Z,12.07
2019-01-17T05:05:10.562Z,8.73
2019-01-17T05:07:39.281Z,9.97
2019-01-17T05:10:08.637Z,13.30
2019-01-17T05:12:37.729Z,13.83
2019-01-17T05:15:07.984Z,15.90
2019-01-17T05:17:37.248Z,14.07
2019-01-17T05:20:08.185Z,16.20
2019-01-17T05:22:36.961Z,13.70
2019-01-17T05:25:12.388Z,12.73
2019-01-17T05:27:39.084Z,13.67
2019-01-17T05:30:11.018Z,12.30
2019-01-17T05:32:40.062Z,10.10
2019-01-17T05:35:08.947Z,15.87
2019-01-17T05:37:37.995Z,13.33
2019-01-17T05:40:09.248Z,10.43
2019-01-17T05:42:37.947Z,8.30
2019-01-17T05:45:07.842Z,16.90
2019-01-17T05:47:36.793Z,13.53
2019-01-17T05:50:06.667Z,14.03
2019-01-17T05:52:35.789Z,12.37
2019-01-17T05:55:05.234Z,10.10
2019-01-17T05:57:34.281Z,8.53
2019-01-17T06:00:03.181Z,10.70
2019-01-17T06:02:32.194Z,11.27
2019-01-17T06:05:00.942Z,14.80
2019-01-17T06:07:29.696Z,19.33
2019-01-17T06:09:58.456Z,11.50
2019-01-17T06:12:27.434Z,10.57
2019-01-17T06:14:56.145Z,9.20
2019-01-17T06:17:25.404Z,8.50
2019-01-17T06:19:54.641Z,10.93
2019-01-17T06:22:23.621Z,11.47
2019-01-17T06:24:52.345Z,9.77
2019-01-17T06:27:21.066Z,9.63
2019-01-17T06:29:50.121Z,10.30
2019-01-17T06:32:18.849Z,10.77
2019-01-17T06:34:47.565Z,13.20
2019-01-17T06:37:16.833Z,9.10
2019-01-17T06:39:45.528Z,7.87
2019-01-17T06:42:14.221Z,10.30
2019-01-17T06:44:43.209Z,12.23
2019-01-17T06:47:12.001Z,9.83
2019-01-17T06:49:40.749Z,9.30
2019-01-17T06:52:09.790Z,9.67
2019-01-17T06:54:38.488Z,9.73
2019-01-17T06:57:07.180Z,6.37
2019-01-17T06:59:36.002Z,7.10
2019-01-17T07:02:04.955Z,8.90
2019-01-17T07:04:33.785Z,10.50
2019-01-17T07:07:03.060Z,8.47
2019-01-17T07:09:32.044Z,8.20
2019-01-17T07:12:01.033Z,9.80
2019-01-17T07:14:29.995Z,9.10
2019-01-17T07:16:58.947Z,10.03
2019-01-17T07:19:27.914Z,10.20
2019-01-17T07:21:56.620Z,7.47
2019-01-17T07:24:25.342Z,11.57
2019-01-17T07:26:54.337Z,12.93
2019-01-17T07:29:23.169Z,9.77
2019-01-17T07:31:52.150Z,10.63
2019-01-17T07:34:20.881Z,8.70
2019-01-17T07:36:49.693Z,7.17
2019-01-17T07:39:18.462Z,8.50
2019-01-17T07:41:47.426Z,6.63
2019-01-17T07:44:16.227Z,5.60
2019-01-17T07:46:44.950Z,5.00
2019-01-17T07:49:14.694Z,8.20
2019-01-17T07:51:43.562Z,6.17
2019-01-17T07:54:12.373Z,5.93
2019-01-17T07:56:41.394Z,8.40
2019-01-17T07:59:10.128Z,7.80
2019-01-17T08:01:39.145Z,9.97
2019-01-17T08:04:08.932Z,6.10
2019-01-17T08:06:37.654Z,8.90
2019-01-17T08:09:25.761Z,8.60
2019-01-17T08:11:57.942Z,6.40
2019-01-17T08:14:46.145Z,12.33
2019-01-17T08:17:14.934Z,14.40
2019-01-17T08:19:44.140Z,10.53
2019-01-17T08:22:13.102Z,12.73
2019-01-17T08:24:42.270Z,10.73
2019-01-17T08:27:11.091Z,10.50
2019-01-17T08:29:40.034Z,14.47
2019-01-17T08:32:09.015Z,14.30
2019-01-17T08:34:37.723Z,11.90
2019-01-17T08:37:06.864Z,12.10
2019-01-17T08:39:35.887Z,10.77
2019-01-17T08:42:04.749Z,15.37
2019-01-17T08:44:33.729Z,12.97
2019-01-17T08:47:02.721Z,20.57
2019-01-17T08:49:31.761Z,12.67
2019-01-17T08:52:00.810Z,14.43
2019-01-17T08:54:29.519Z,14.77
2019-01-17T08:56:58.247Z,11.23
2019-01-17T08:59:26.981Z,11.27
2019-01-17T09:01:55.695Z,14.10
2019-01-17T09:04:24.457Z,22.47
2019-01-17T09:06:53.177Z,13.30
2019-01-17T09:09:21.900Z,9.40
2019-01-17T09:11:50.708Z,10.67
2019-01-17T09:14:19.764Z,14.90
2019-01-17T09:16:48.504Z,11.40
2019-01-17T09:19:17.286Z,12.00
2019-01-17T09:21:46.029Z,11.03
2019-01-17T09:24:14.738Z,11.07
2019-01-17T09:26:43.465Z,11.73
2019-01-17T09:29:12.180Z,14.47
2019-01-17T09:31:40.950Z,10.67
2019-01-17T09:34:09.664Z,15.27
2019-01-17T09:36:38.477Z,11.80
2019-01-17T09:39:08.905Z,14.80
2019-01-17T09:41:37.698Z,13.93
2019-01-17T09:44:06.515Z,14.53
2019-01-17T09:46:35.224Z,11.97
2019-01-17T09:49:04.250Z,11.40
2019-01-17T09:51:33.305Z,10.67
2019-01-17T09:54:02.084Z,14.90
2019-01-17T09:56:31.173Z,15.30
2019-01-17T09:59:02.992Z,13.10
2019-01-17T10:01:31.696Z,12.43
2019-01-17T10:04:00.501Z,13.37
2019-01-17T10:06:29.243Z,14.03
2019-01-17T10:08:57.968Z,15.77
2019-01-17T10:11:26.905Z,14.80
2019-01-17T10:13:55.909Z,14.63
2019-01-17T10:16:45.229Z,9.43
2019-01-17T10:19:49.271Z,10.47
2019-01-17T10:22:36.564Z,10.40
2019-01-17T10:25:44.067Z,8.17
2019-01-17T10:28:51.750Z,6.67
2019-01-17T10:31:40.433Z,6.73
2019-01-17T10:34:34.106Z,7.37
2019-01-17T10:38:08.353Z,8.50
2019-01-17T10:41:28.752Z,7.40
2019-01-17T10:44:27.876Z,5.57
2019-01-17T10:48:00.169Z,7.17
2019-01-17T10:50:51.765Z,7.63
2019-01-17T10:53:48.884Z,7.20
2019-01-17T10:56:52.911Z,5.90
2019-01-17T10:59:36.173Z,8.70
2019-01-17T11:02:42.513Z,5.20
2019-01-17T11:05:36.248Z,6.27
2019-01-17T11:08:29.667Z,6.40
2019-01-17T11:11:44.788Z,7.60
2019-01-17T11:14:40.273Z,4.77
2019-01-17T11:17:56.329Z,4.67
2019-01-17T11:20:52.817Z,5.13
2019-01-17T11:23:33.737Z,5.00
2019-01-17T11:26:34.303Z,8.53
2019-01-17T11:29:44.077Z,3.80
2019-01-17T11:32:41.912Z,4.77
2019-01-17T11:35:59.113Z,5.50
2019-01-17T11:39:04.895Z,3.90
2019-01-17T11:42:13.758Z,4.00
2019-01-17T11:45:30.220Z,4.13
2019-01-17T11:48:23.954Z,7.93
2019-01-17T11:51:25.965Z,3.63
2019-01-17T11:54:13.149Z,4.10
2019-01-17T11:57:35.571Z,5.33
2019-01-17T12:00:52.609Z,4.30
2019-01-17T12:04:10.541Z,5.30
2019-01-17T12:06:39.236Z,4.37
2019-01-17T12:09:08.221Z,4.57
2019-01-17T12:11:37.245Z,4.83
2019-01-17T12:14:06.120Z,5.53
2019-01-17T12:16:35.182Z,4.63
2019-01-17T12:19:04.294Z,6.00
2019-01-17T12:21:33.672Z,4.73
2019-01-17T12:24:02.457Z,6.47
2019-01-17T12:26:31.727Z,4.90
2019-01-17T12:29:00.589Z,5.13
2019-01-17T12:31:33.852Z,6.33
2019-01-17T12:34:00.254Z,7.67
2019-01-17T12:36:29.461Z,6.00
2019-01-17T12:38:58.321Z,6.13
2019-01-17T12:41:27.162Z,4.67
2019-01-17T12:43:56.144Z,5.07
2019-01-17T12:46:24.993Z,4.80
2019-01-17T12:48:54.113Z,2.10
2019-01-17T12:51:23.365Z,2.67
2019-01-17T12:53:52.277Z,4.70
2019-01-17T12:56:21.043Z,4.13
2019-01-17T12:58:49.994Z,2.93
2019-01-17T13:01:19.122Z,3.17
2019-01-17T13:03:49.581Z,3.43
2019-01-17T13:06:18.817Z,2.37
2019-01-17T13:08:47.686Z,3.40
2019-01-17T13:11:17.112Z,2.73
2019-01-17T13:13:46.086Z,2.30
2019-01-17T13:16:14.809Z,1.67
2019-01-17T13:18:43.838Z,4.17
2019-01-17T13:21:12.544Z,2.83
2019-01-17T13:23:41.609Z,3.10
2019-01-17T13:26:10.613Z,2.73
2019-01-17T13:28:39.545Z,3.13
2019-01-17T13:31:08.697Z,3.50
2019-01-17T13:33:40.839Z,4.63
2019-01-17T13:36:13.392Z,3.33
2019-01-17T13:38:42.336Z,3.50
2019-01-17T13:41:11.240Z,3.70
2019-01-17T13:43:40.426Z,3.53
2019-01-17T13:46:09.838Z,6.50
2019-01-17T13:48:38.914Z,4.60
2019-01-17T13:51:08.116Z,5.53
2019-01-17T13:53:37.293Z,5.60
2019-01-17T13:56:07.641Z,4.73
2019-01-17T13:58:36.378Z,5.57
2019-01-17T14:01:05.485Z,10.63
2019-01-17T14:03:37.042Z,5.10
2019-01-17T14:06:06.066Z,4.63
2019-01-17T14:08:35.025Z,5.80
2019-01-17T14:11:04.301Z,4.90
2019-01-17T14:13:33.366Z,5.00
2019-01-17T14:16:02.258Z,5.30
2019-01-17T14:18:31.053Z,6.00
2019-01-17T14:20:59.741Z,6.23
2019-01-17T14:23:28.745Z,7.30
2019-01-17T14:25:57.764Z,5.70
2019-01-17T14:28:26.802Z,6.00
2019-01-17T14:30:56.013Z,7.93
2019-01-17T14:33:25.137Z,7.37
2019-01-17T14:35:55.268Z,7.20
2019-01-17T14:38:24.873Z,7.93
2019-01-17T14:40:53.950Z,8.47
2019-01-17T14:43:22.660Z,9.43
2019-01-17T14:45:51.545Z,8.70
2019-01-17T14:48:20.533Z,9.37
2019-01-17T14:50:49.329Z,10.87
2019-01-17T14:53:18.368Z,9.50
2019-01-17T14:55:47.142Z,10.70
2019-01-17T14:58:16.041Z,10.43
2019-01-17T15:00:44.820Z,11.77
2019-01-17T15:03:14.065Z,11.40
2019-01-17T15:05:43.028Z,9.83
2019-01-17T15:08:12.019Z,14.07
2019-01-17T15:10:41.963Z,13.33
2019-01-17T15:13:11.377Z,12.90
2019-01-17T15:15:40.113Z,14.70
2019-01-17T15:18:09.406Z,10.50
2019-01-17T15:20:38.150Z,17.27
2019-01-17T15:23:08.749Z,11.80
2019-01-17T15:25:38.894Z,11.13
2019-01-17T15:28:08.153Z,10.90
2019-01-17T15:30:37.195Z,9.40
2019-01-17T15:33:06.069Z,9.40
2019-01-17T15:35:34.820Z,11.03
2019-01-17T15:38:03.957Z,9.80
2019-01-17T15:40:32.742Z,9.43
2019-01-17T15:43:01.973Z,9.43
2019-01-17T15:45:31.089Z,9.20
2019-01-17T15:48:00.326Z,6.70
2019-01-17T15:50:29.510Z,7.40
2019-01-17T15:52:59.133Z,12.03
2019-01-17T15:55:27.967Z,12.20
2019-01-17T15:57:56.699Z,15.10
2019-01-17T16:00:30.810Z,8.83
2019-01-17T16:02:59.845Z,9.90
2019-01-17T16:05:29.172Z,8.70
2019-01-17T16:07:58.061Z,6.10
2019-01-17T16:10:26.796Z,9.10
2019-01-17T16:12:55.711Z,6.90
2019-01-17T16:15:26.537Z,7.50
2019-01-17T16:17:55.397Z,9.47
2019-01-17T16:20:24.529Z,6.00
2019-01-17T16:22:53.553Z,5.80
2019-01-17T16:25:23.674Z,4.97
2019-01-17T16:27:53.161Z,6.80
2019-01-17T16:30:24.869Z,6.83
2019-01-17T16:32:53.696Z,9.50
2019-01-17T16:35:22.786Z,6.53
2019-01-17T16:37:51.592Z,8.03
2019-01-17T16:40:20.688Z,6.03
2019-01-17T16:42:49.663Z,5.67
2019-01-17T16:45:19.266Z,9.20
2019-01-17T16:47:48.090Z,4.33
2019-01-17T16:50:19.057Z,3.70
2019-01-17T16:52:48.094Z,4.33
2019-01-17T16:55:17.104Z,4.70
2019-01-17T16:57:49.121Z,3.00
2019-01-17T17:00:25.710Z,2.73
2019-01-17T17:02:54.694Z,3.27
2019-01-17T17:05:23.598Z,2.70
2019-01-17T17:07:52.986Z,8.27
2019-01-17T17:10:22.395Z,14.43
2019-01-17T17:12:51.321Z,4.70
2019-01-17T17:15:20.226Z,4.00
2019-01-17T17:17:49.027Z,2.97
2019-01-17T17:20:19.257Z,3.50
2019-01-17T17:22:48.269Z,2.50
2019-01-17T17:25:17.270Z,12.23
2019-01-17T17:27:46.317Z,6.07
2019-01-17T17:30:18.828Z,6.00
2019-01-17T17:32:47.973Z,4.53
2019-01-17T17:35:16.852Z,8.10
2019-01-17T17:37:45.958Z,7.57
2019-01-17T17:40:26.407Z,4.50
2019-01-17T17:42:56.762Z,13.03
2019-01-17T17:45:29.505Z,6.57
2019-01-17T17:48:00.378Z,8.03
2019-01-17T17:50:29.216Z,15.90
2019-01-17T17:52:58.176Z,8.20
2019-01-17T17:55:27.321Z,5.20
2019-01-17T17:58:01.947Z,7.73
2019-01-17T18:00:33.040Z,15.70
2019-01-17T18:03:02.350Z,22.83
2019-01-17T18:05:31.986Z,13.37
2019-01-17T18:08:00.948Z,16.37
2019-01-17T18:10:29.796Z,13.10
2019-01-17T18:12:59.112Z,14.43
2019-01-17T18:15:28.521Z,14.20
2019-01-17T18:17:57.719Z,16.07
2019-01-17T18:20:26.974Z,8.23
2019-01-17T18:22:55.983Z,14.93
2019-01-17T18:25:24.740Z,12.67
2019-01-17T18:27:53.652Z,5.90
2019-01-17T18:30:22.871Z,4.23
2019-01-17T18:32:52.838Z,26.67
2019-01-17T18:35:21.672Z,16.67
2019-01-17T18:37:50.962Z,6.00
2019-01-17T18:40:19.815Z,9.33
2019-01-17T18:42:48.712Z,7.53
2019-01-17T18:45:19.464Z,8.13
2019-01-17T18:47:48.301Z,8.27
2019-01-17T18:50:19.715Z,14.10
2019-01-17T18:52:48.553Z,10.10
2019-01-17T18:55:17.728Z,11.03
2019-01-17T18:57:47.893Z,11.63
2019-01-17T19:00:23.770Z,12.10
2019-01-17T19:02:52.805Z,14.30
2019-01-17T19:05:22.337Z,11.63
2019-01-17T19:07:51.201Z,13.73
2019-01-17T19:10:20.255Z,36.63
2019-01-17T19:12:49.469Z,15.97
2019-01-17T19:15:21.348Z,24.07
2019-01-17T19:17:50.997Z,20.40
2019-01-17T19:20:21.531Z,15.40
2019-01-17T19:22:50.597Z,13.63
2019-01-17T19:25:21.200Z,14.37
2019-01-17T19:27:52.036Z,13.20
2019-01-17T19:30:26.428Z,11.17
2019-01-17T19:32:57.377Z,7.43
2019-01-17T19:35:26.593Z,4.97
2019-01-17T19:37:58.698Z,3.50
2019-01-17T19:40:29.341Z,4.40
2019-01-17T19:43:02.341Z,3.83
2019-01-17T19:45:35.581Z,1.63
2019-01-17T19:48:04.409Z,2.20
2019-01-17T19:50:39.602Z,2.27
2019-01-17T19:53:10.050Z,2.33
2019-01-17T19:55:38.964Z,2.23
2019-01-17T19:58:09.781Z,2.13
2019-01-17T20:00:38.594Z,3.67
2019-01-17T20:03:07.520Z,3.17
2019-01-17T20:05:36.784Z,3.80
2019-01-17T20:08:05.964Z,5.90
2019-01-17T20:10:36.436Z,7.20
2019-01-17T20:13:06.205Z,4.80
2019-01-17T20:15:35.340Z,10.90
2019-01-17T20:18:04.765Z,10.60
2019-01-17T20:20:33.951Z,6.50
2019-01-17T20:23:02.999Z,8.40
2019-01-17T20:25:31.824Z,14.67
2019-01-17T20:28:00.915Z,12.50
2019-01-17T20:30:32.663Z,9.97
2019-01-17T20:33:05.659Z,18.03
2019-01-17T20:35:35.319Z,14.67
2019-01-17T20:38:04.774Z,19.90
2019-01-17T20:40:37.420Z,12.53
2019-01-17T20:43:06.374Z,12.27
2019-01-17T20:45:35.513Z,16.30
2019-01-17T20:48:07.146Z,13.20
2019-01-17T20:50:36.047Z,9.87
2019-01-17T20:53:05.282Z,9.87
2019-01-17T20:55:36.110Z,9.93
2019-01-17T20:58:05.084Z,7.93
2019-01-17T21:00:55.602Z,12.27
2019-01-17T21:03:24.754Z,8.23
2019-01-17T21:05:53.792Z,6.67
2019-01-17T21:08:22.665Z,14.67
2019-01-17T21:10:54.369Z,6.73
2019-01-17T21:13:23.643Z,13.47
2019-01-17T21:15:52.689Z,12.03
2019-01-17T21:18:21.698Z,8.83
2019-01-17T21:20:51.687Z,10.00
2019-01-17T21:23:20.843Z,16.13
2019-01-17T21:25:49.677Z,7.33
2019-01-17T21:28:18.590Z,9.27
2019-01-17T21:30:47.529Z,4.57
2019-01-17T21:33:16.273Z,6.10
2019-01-17T21:35:47.169Z,9.73
2019-01-17T21:38:16.167Z,8.50
2019-01-17T21:40:45.029Z,6.90
2019-01-17T21:43:13.851Z,7.70
2019-01-17T21:45:42.796Z,9.93
2019-01-17T21:48:11.770Z,5.50
2019-01-17T21:50:40.722Z,6.30
2019-01-17T21:53:09.457Z,6.47
2019-01-17T21:55:38.248Z,10.23
2019-01-17T21:58:07.431Z,6.40
2019-01-17T22:00:36.458Z,5.03
2019-01-17T22:03:05.725Z,5.27
2019-01-17T22:05:34.468Z,9.57
2019-01-17T22:08:03.457Z,9.57
2019-01-17T22:10:32.440Z,4.93
2019-01-17T22:13:01.578Z,8.83
2019-01-17T22:15:30.641Z,7.67
2019-01-17T22:17:59.725Z,9.53
2019-01-17T22:20:28.572Z,8.20
2019-01-17T22:22:57.551Z,7.03
2019-01-17T22:25:29.973Z,14.23
2019-01-17T22:28:01.175Z,7.97
2019-01-17T22:30:30.051Z,11.90
2019-01-17T22:32:59.374Z,10.97
2019-01-17T22:35:28.340Z,7.00
2019-01-17T22:37:59.500Z,6.87
2019-01-17T22:40:28.472Z,8.33
2019-01-17T22:42:57.444Z,11.03
2019-01-17T22:45:28.487Z,7.27
2019-01-17T22:47:57.440Z,6.63
2019-01-17T22:50:26.722Z,8.33
2019-01-17T22:52:55.469Z,8.87
2019-01-17T22:55:24.260Z,6.23
2019-01-17T22:57:53.094Z,6.83
2019-01-17T23:00:50.094Z,9.00
2019-01-17T23:03:25.705Z,4.23
2019-01-17T23:05:55.842Z,4.53
2019-01-17T23:08:24.696Z,4.87
2019-01-17T23:10:53.412Z,8.20
2019-01-17T23:13:22.466Z,7.30
2019-01-17T23:15:51.528Z,11.90
2019-01-17T23:18:20.257Z,7.87
2019-01-17T23:20:48.993Z,10.47
2019-01-17T23:23:17.705Z,6.63
2019-01-17T23:25:46.453Z,8.30
2019-01-17T23:28:15.175Z,7.60
2019-01-17T23:30:44.257Z,9.00
2019-01-17T23:33:13.052Z,8.60
2019-01-17T23:35:42.028Z,10.57
2019-01-17T23:38:10.801Z,8.90
2019-01-17T23:40:39.552Z,8.37
2019-01-17T23:43:08.497Z,14.03
2019-01-17T23:45:37.462Z,7.67
2019-01-17T23:48:06.241Z,7.60
2019-01-17T23:50:34.987Z,7.27
2019-01-17T23:53:04.573Z,8.40
2019-01-17T23:55:33.294Z,8.43
2019-01-17T23:58:02.093Z,5.10
